Terminal Aerodrome Forecast
Issued by NWS

Home | Current Version | Previous Version | Text Only | Print | Product List | Glossary On
Versions: 1 2 3 4 5 6 7 8 9 10 11 12 13 14 15 16 17 18 19
119
FTUS44 KLZK 261151 CCA
TAFBPK
TAF COR
KBPK 261151Z 2612/2712 17005KT P6SM FEW100 BKN250
     FM261900 16009KT P6SM BKN100 BKN250
     FM270000 15005KT P6SM OVC050
     FM270400 14004KT P6SM VCSH BKN025 OVC040=

USA.gov is the U.S. government's official web portal to all federal, state and local government web resources and services.